createdAt,value
2022-09-10T00:01:01.892Z,100408.25
2022-09-10T00:03:29.504Z,100414.78
2022-09-10T00:05:57.093Z,100412.31
2022-09-10T00:08:24.926Z,100410.88
2022-09-10T00:10:53.027Z,100418.25
2022-09-10T00:13:23.223Z,100414.28
2022-09-10T00:15:53.026Z,100412.06
2022-09-10T00:18:22.952Z,100409.91
2022-09-10T00:20:53.063Z,100409.78
2022-09-10T00:23:23.841Z,100413.56
2022-09-10T00:25:53.351Z,100415.81
2022-09-10T00:28:24.241Z,100409.31
2022-09-10T00:30:54.507Z,100417.03
2022-09-10T00:33:23.182Z,100414.28
2022-09-10T00:35:51.033Z,100408.34
2022-09-10T00:38:18.728Z,100415.56
2022-09-10T00:40:46.998Z,100409.72
2022-09-10T00:43:18.625Z,100407.00
2022-09-10T00:45:50.662Z,100407.34
2022-09-10T00:48:23.202Z,100409.53
2022-09-10T00:50:51.748Z,100407.03
2022-09-10T00:53:29.219Z,100415.13
2022-09-10T00:56:00.150Z,100411.09
2022-09-10T00:58:29.602Z,100413.72
2022-09-10T01:01:00.978Z,100413.03
2022-09-10T01:03:30.230Z,100405.31
2022-09-10T01:05:58.562Z,100414.47
2022-09-10T01:08:27.305Z,100405.97
2022-09-10T01:11:10.026Z,100397.97
2022-09-10T01:14:00.510Z,100403.44
2022-09-10T01:16:37.414Z,100409.66
2022-09-10T01:19:26.892Z,100414.88
2022-09-10T01:22:06.278Z,100416.38
2022-09-10T01:24:52.157Z,100416.34
2022-09-10T01:27:33.030Z,100416.09
2022-09-10T01:30:06.568Z,100420.34
2022-09-10T01:32:40.757Z,100428.66
2022-09-10T01:35:16.192Z,100425.16
2022-09-10T01:37:47.430Z,100427.19
2022-09-10T01:40:17.632Z,100428.34
2022-09-10T01:42:47.010Z,100424.31
2022-09-10T01:45:16.247Z,100429.50
2022-09-10T01:48:04.321Z,100426.78
2022-09-10T01:50:41.194Z,100443.19
2022-09-10T01:53:31.404Z,100438.78
2022-09-10T01:56:05.070Z,100445.09
2022-09-10T01:58:38.511Z,100444.25
2022-09-10T02:01:14.889Z,100437.97
2022-09-10T02:03:45.069Z,100441.66
2022-09-10T02:06:16.611Z,100436.69
2022-09-10T02:08:48.751Z,100439.69
2022-09-10T02:11:16.891Z,100432.56
2022-09-10T02:13:45.919Z,100432.56
2022-09-10T02:16:16.709Z,100432.56
2022-09-10T02:18:44.638Z,100431.47
2022-09-10T02:21:13.149Z,100433.72
2022-09-10T02:23:44.437Z,100433.22
2022-09-10T02:26:14.265Z,100439.28
2022-09-10T02:28:43.474Z,100445.03
2022-09-10T02:31:12.979Z,100441.50
2022-09-10T02:33:40.658Z,100448.44
2022-09-10T02:36:08.804Z,100446.66
2022-09-10T02:38:36.433Z,100446.66
2022-09-10T02:41:04.089Z,100443.94
2022-09-10T02:43:31.746Z,100449.88
2022-09-10T02:46:00.443Z,100452.59
2022-09-10T02:48:30.829Z,100448.25
2022-09-10T02:50:59.036Z,100451.09
2022-09-10T02:53:26.952Z,100447.84
2022-09-10T02:55:55.186Z,100453.53
2022-09-10T02:58:22.789Z,100449.00
2022-09-10T03:00:50.682Z,100449.34
2022-09-10T03:03:19.318Z,100451.56
2022-09-10T03:05:48.221Z,100454.91
2022-09-10T03:08:15.990Z,100454.66
2022-09-10T03:10:43.564Z,100460.69
2022-09-10T03:13:11.198Z,100454.75
2022-09-10T03:15:39.095Z,100455.59
2022-09-10T03:18:06.979Z,100458.06
2022-09-10T03:20:34.607Z,100463.28
2022-09-10T03:23:03.908Z,100459.13
2022-09-10T03:25:31.529Z,100471.72
2022-09-10T03:27:59.739Z,100469.84
2022-09-10T03:30:27.338Z,100474.22
2022-09-10T03:32:55.060Z,100466.63
2022-09-10T03:35:22.632Z,100461.16
2022-09-10T03:37:50.368Z,100464.03
2022-09-10T03:40:19.298Z,100468.31
2022-09-10T03:42:46.937Z,100463.94
2022-09-10T03:45:14.620Z,100469.38
2022-09-10T03:47:42.431Z,100462.75
2022-09-10T03:50:10.549Z,100468.22
2022-09-10T03:52:38.151Z,100461.47
2022-09-10T03:55:06.483Z,100464.78
2022-09-10T03:57:35.365Z,100464.56
2022-09-10T04:00:03.221Z,100470.59
2022-09-10T04:02:30.897Z,100464.06
2022-09-10T04:04:58.583Z,100467.63
2022-09-10T04:07:26.169Z,100471.19
2022-09-10T04:09:53.782Z,100468.47
2022-09-10T04:12:21.353Z,100475.00
2022-09-10T04:14:50.259Z,100466.09
2022-09-10T04:17:17.962Z,100479.53
2022-09-10T04:19:45.642Z,100474.06
2022-09-10T04:22:13.317Z,100471.00
2022-09-10T04:24:42.162Z,100474.22
2022-09-10T04:27:09.755Z,100467.66
2022-09-10T04:29:38.116Z,100472.16
2022-09-10T04:32:07.321Z,100467.19
2022-09-10T04:34:34.989Z,100461.72
2022-09-10T04:37:02.574Z,100460.88
2022-09-10T04:39:30.193Z,100465.78
2022-09-10T04:41:57.976Z,100466.84
2022-09-10T04:44:25.632Z,100469.81
2022-09-10T04:46:53.201Z,100466.59
2022-09-10T04:49:22.389Z,100462.78
2022-09-10T04:51:49.983Z,100456.50
2022-09-10T04:54:17.867Z,100470.38
2022-09-10T04:56:47.629Z,100472.06
2022-09-10T04:59:15.331Z,100473.13
2022-09-10T05:01:42.956Z,100475.16
2022-09-10T05:04:10.630Z,100480.03
2022-09-10T05:06:39.590Z,100482.75
2022-09-10T05:09:07.216Z,100484.78
2022-09-10T05:11:36.672Z,100484.53
2022-09-10T05:14:05.271Z,100486.22
2022-09-10T05:16:33.003Z,100482.41
2022-09-10T05:19:00.701Z,100484.03
2022-09-10T05:21:29.105Z,100492.50
2022-09-10T05:23:58.083Z,100478.25
2022-09-10T05:26:26.274Z,100482.41
2022-09-10T05:28:54.836Z,100476.94
2022-09-10T05:31:22.504Z,100485.72
2022-09-10T05:33:50.130Z,100486.56
2022-09-10T05:36:17.813Z,100483.59
2022-09-10T05:38:46.354Z,100486.06
2022-09-10T05:41:15.455Z,100491.78
2022-09-10T05:43:43.090Z,100481.91
2022-09-10T05:46:10.742Z,100489.16
2022-09-10T05:48:41.769Z,100492.94
2022-09-10T05:51:09.800Z,100489.06
2022-09-10T05:53:38.241Z,100485.00
2022-09-10T05:56:07.479Z,100476.81
2022-09-10T05:58:36.688Z,100476.56
2022-09-10T06:01:04.466Z,100481.41
2022-09-10T06:03:32.094Z,100482.03
2022-09-10T06:05:59.711Z,100480.97
2022-09-10T06:08:27.313Z,100488.91
2022-09-10T06:10:57.695Z,100488.41
2022-09-10T06:13:25.919Z,100489.47
2022-09-10T06:15:55.209Z,100480.81
2022-09-10T06:18:23.379Z,100487.59
2022-09-10T06:20:52.500Z,100479.72
2022-09-10T06:23:20.259Z,100480.31
2022-09-10T06:25:48.111Z,100480.06
2022-09-10T06:28:15.988Z,100485.06
2022-09-10T06:30:43.635Z,100489.69
2022-09-10T06:33:13.976Z,100487.22
2022-09-10T06:35:41.589Z,100484.47
2022-09-10T06:38:09.181Z,100492.53
2022-09-10T06:40:38.075Z,100492.28
2022-09-10T06:43:05.961Z,100491.88
2022-09-10T06:45:33.589Z,100488.91
2022-09-10T06:50:54.970Z,100501.03
2022-09-10T06:53:24.042Z,100494.94
2022-09-10T06:55:52.040Z,100497.78
2022-09-10T06:58:20.787Z,100492.97
2022-09-10T07:00:48.588Z,100490.59
2022-09-10T07:03:16.762Z,100501.28
2022-09-10T07:05:45.544Z,100503.03
2022-09-10T07:08:17.311Z,100495.59
2022-09-10T07:10:47.251Z,100500.16
2022-09-10T07:13:15.360Z,100511.53
2022-09-10T07:15:47.342Z,100505.72
2022-09-10T07:18:15.314Z,100513.00
2022-09-10T07:20:43.747Z,100513.94
2022-09-10T07:23:12.829Z,100511.03
2022-09-10T07:25:42.630Z,100513.59
2022-09-10T07:28:14.018Z,100516.69
2022-09-10T07:30:42.801Z,100518.47
2022-09-10T07:33:12.034Z,100521.31
2022-09-10T07:35:40.269Z,100521.97
2022-09-10T07:38:14.194Z,100531.59
2022-09-10T07:40:44.017Z,100537.22
2022-09-10T07:43:11.816Z,100528.94
2022-09-10T07:45:41.525Z,100534.41
2022-09-10T07:48:09.167Z,100539.97
2022-09-10T07:50:37.048Z,100535.09
2022-09-10T07:53:05.391Z,100542.59
2022-09-10T07:55:33.576Z,100540.38
2022-09-10T07:58:02.854Z,100538.94
2022-09-10T08:00:30.885Z,100542.22
2022-09-10T08:02:58.609Z,100537.81
2022-09-10T08:05:28.827Z,100538.00
2022-09-10T08:08:02.355Z,100549.81
2022-09-10T08:10:30.510Z,100549.16
2022-09-10T08:12:59.186Z,100556.97
2022-09-10T08:15:28.626Z,100554.78
2022-09-10T08:17:56.542Z,100563.22
2022-09-10T08:20:26.564Z,100554.94
2022-09-10T08:22:57.218Z,100567.50
2022-09-10T08:25:25.156Z,100569.41
2022-09-10T08:27:52.882Z,100562.78
2022-09-10T08:30:20.508Z,100572.16
2022-09-10T08:32:49.805Z,100564.56
2022-09-10T08:35:17.724Z,100574.66
2022-09-10T08:37:45.338Z,100568.31
2022-09-10T08:40:14.526Z,100569.34
2022-09-10T08:42:46.605Z,100577.72
2022-09-10T08:45:20.645Z,100578.94
2022-09-10T08:47:56.637Z,100577.19
2022-09-10T08:50:32.328Z,100570.09
2022-09-10T08:53:10.804Z,100574.88
2022-09-10T08:55:44.989Z,100575.50
2022-09-10T08:58:20.787Z,100578.63
2022-09-10T09:00:52.957Z,100577.94
2022-09-10T09:03:28.309Z,100579.97
2022-09-10T09:05:58.814Z,100575.84
2022-09-10T09:08:28.855Z,100576.13
2022-09-10T09:11:05.948Z,100573.38
2022-09-10T09:13:58.221Z,100579.50
2022-09-10T09:16:41.681Z,100573.53
2022-09-10T09:19:25.159Z,100577.75
2022-09-10T09:21:54.010Z,100577.75
2022-09-10T09:24:31.423Z,100575.84
2022-09-10T09:27:09.773Z,100581.09
2022-09-10T09:29:45.187Z,100578.16
2022-09-10T09:32:18.662Z,100582.16
2022-09-10T09:34:51.216Z,100581.53
2022-09-10T09:37:21.161Z,100581.94
2022-09-10T09:39:59.483Z,100574.84
2022-09-10T09:42:39.859Z,100579.81
2022-09-10T09:45:17.197Z,100577.38
2022-09-10T09:47:45.827Z,100579.31
2022-09-10T09:50:18.381Z,100585.28
2022-09-10T09:52:47.383Z,100579.47
2022-09-10T09:55:27.303Z,100574.00
2022-09-10T09:58:30.458Z,100577.53
2022-09-10T10:01:12.945Z,100567.69
2022-09-10T10:03:50.150Z,100571.31
2022-09-10T10:06:20.575Z,100572.16
2022-09-10T10:08:55.923Z,100574.56
2022-09-10T10:11:39.352Z,100564.75
2022-09-10T10:14:23.391Z,100569.47
2022-09-10T10:16:57.402Z,100569.75
2022-09-10T10:19:33.976Z,100564.03
2022-09-10T10:22:21.158Z,100558.03
2022-09-10T10:24:51.342Z,100558.72
2022-09-10T10:27:24.194Z,100560.19
2022-09-10T10:29:56.295Z,100561.78
2022-09-10T10:32:44.557Z,100562.22
2022-09-10T10:35:35.753Z,100549.13
2022-09-10T10:38:29.957Z,100548.59
2022-09-10T10:41:24.448Z,100556.16
2022-09-10T10:44:07.488Z,100551.81
2022-09-10T10:46:44.881Z,100546.94
2022-09-10T10:49:26.551Z,100543.69
2022-09-10T10:52:08.754Z,100558.75
2022-09-10T10:54:52.402Z,100549.13
2022-09-10T10:57:29.562Z,100551.19
2022-09-10T11:00:02.119Z,100551.56
2022-09-10T11:02:41.516Z,100555.47
2022-09-10T11:05:21.412Z,100544.22
2022-09-10T11:07:49.418Z,100555.38
2022-09-10T11:10:24.125Z,100544.41
2022-09-10T11:13:02.698Z,100556.56
2022-09-10T11:15:36.242Z,100538.50
2022-09-10T11:18:11.560Z,100538.03
2022-09-10T11:20:45.172Z,100537.00
2022-09-10T11:23:24.696Z,100536.72
2022-09-10T11:26:00.454Z,100529.63
2022-09-10T11:28:32.436Z,100523.28
2022-09-10T11:31:07.629Z,100527.97
2022-09-10T11:33:43.083Z,100534.59
2022-09-10T11:36:17.328Z,100531.06
2022-09-10T11:38:52.883Z,100521.63
2022-09-10T11:41:25.804Z,100522.25
2022-09-10T11:44:00.761Z,100526.13
2022-09-10T11:46:34.601Z,100523.16
2022-09-10T11:49:10.190Z,100524.59
2022-09-10T11:51:39.098Z,100525.44
2022-09-10T11:54:13.515Z,100514.13
2022-09-10T11:56:53.837Z,100517.44
2022-09-10T11:59:37.353Z,100513.03
2022-09-10T12:02:32.581Z,100508.63
2022-09-10T12:05:09.339Z,100501.78
2022-09-10T12:07:46.965Z,100508.13
2022-09-10T12:10:24.078Z,100512.25
2022-09-10T12:12:53.414Z,100508.63
2022-09-10T12:15:23.372Z,100513.56
2022-09-10T12:17:57.711Z,100500.94
2022-09-10T12:20:31.913Z,100505.94
2022-09-10T12:23:00.985Z,100509.22
2022-09-10T12:25:34.533Z,100503.69
2022-09-10T12:28:07.741Z,100514.16
2022-09-10T12:31:03.727Z,100508.66
2022-09-10T12:34:07.473Z,100508.41
2022-09-10T12:37:16.073Z,100504.78
2022-09-10T12:39:45.782Z,100507.81
2022-09-10T12:42:31.725Z,100510.00
2022-09-10T12:45:00.080Z,100511.66
2022-09-10T12:47:47.028Z,100515.50
2022-09-10T12:50:23.120Z,100513.53
2022-09-10T12:53:12.083Z,100503.06
2022-09-10T12:55:53.635Z,100510.72
2022-09-10T12:58:30.067Z,100515.09
2022-09-10T13:01:11.859Z,100510.63
2022-09-10T13:03:54.005Z,100511.47
2022-09-10T13:06:35.912Z,100505.50
2022-09-10T13:09:16.764Z,100506.91
2022-09-10T13:11:49.511Z,100506.09
2022-09-10T13:14:22.200Z,100503.63
2022-09-10T13:16:50.400Z,100512.69
2022-09-10T13:19:50.991Z,100509.13
2022-09-10T13:23:03.843Z,100504.44
2022-09-10T13:25:41.488Z,100503.31
2022-09-10T13:29:00.645Z,100499.19
2022-09-10T13:31:33.454Z,100503.34
2022-09-10T13:34:36.018Z,100506.69
2022-09-10T13:37:26.491Z,100505.84
2022-09-10T13:40:19.074Z,100504.78
2022-09-10T13:43:01.741Z,100503.13
2022-09-10T13:45:38.541Z,100504.75
2022-09-10T13:48:14.848Z,100503.69
2022-09-10T13:50:50.741Z,100501.19
2022-09-10T13:53:20.669Z,100503.94
2022-09-10T13:55:56.493Z,100503.09
2022-09-10T13:58:28.556Z,100505.28
2022-09-10T14:00:58.613Z,100503.84
2022-09-10T14:03:32.884Z,100509.28
2022-09-10T14:06:04.156Z,100507.91
2022-09-10T14:08:35.798Z,100506.25
2022-09-10T14:11:08.047Z,100509.50
2022-09-10T14:13:40.407Z,100516.97
2022-09-10T14:16:12.235Z,100510.09
2022-09-10T14:18:45.718Z,100513.69
2022-09-10T14:21:15.557Z,100513.97
2022-09-10T14:23:45.821Z,100520.00
2022-09-10T14:26:19.794Z,100512.84
2022-09-10T14:28:52.681Z,100517.25
2022-09-10T14:31:24.256Z,100523.13
2022-09-10T14:33:54.750Z,100526.19
2022-09-10T14:36:31.247Z,100523.44
2022-09-10T14:39:06.442Z,100520.13
2022-09-10T14:41:36.731Z,100521.50
2022-09-10T14:44:29.695Z,100519.00
2022-09-10T14:47:00.275Z,100518.44
2022-09-10T14:49:31.773Z,100524.91
2022-09-10T14:52:01.515Z,100523.00
2022-09-10T14:54:31.925Z,100521.38
2022-09-10T14:57:02.830Z,100514.19
2022-09-10T14:59:34.306Z,100512.84
2022-09-10T15:02:05.938Z,100514.78
2022-09-10T15:04:34.911Z,100510.63
2022-09-10T15:07:02.698Z,100512.28
2022-09-10T15:09:31.227Z,100507.09
2022-09-10T15:12:05.031Z,100512.66
2022-09-10T15:14:33.582Z,100511.28
2022-09-10T15:17:01.477Z,100511.56
2022-09-10T15:19:29.409Z,100508.00
2022-09-10T15:21:59.576Z,100511.84
2022-09-10T15:24:28.478Z,100508.53
2022-09-10T15:26:57.269Z,100504.16
2022-09-10T15:29:26.119Z,100508.00
2022-09-10T15:31:54.422Z,100511.84
2022-09-10T15:34:22.012Z,100516.16
2022-09-10T15:36:49.674Z,100520.00
2022-09-10T15:39:18.588Z,100509.59
2022-09-10T15:41:46.283Z,100516.50
2022-09-10T15:44:14.081Z,100514.59
2022-09-10T15:46:44.455Z,100512.09
2022-09-10T15:49:12.605Z,100512.66
2022-09-10T15:51:41.251Z,100511.00
2022-09-10T15:54:10.737Z,100515.69
2022-09-10T15:56:40.666Z,100518.97
2022-09-10T15:59:09.002Z,100518.97
2022-09-10T16:01:38.252Z,100520.59
2022-09-10T16:04:06.803Z,100520.56
2022-09-10T16:06:36.515Z,100525.75
2022-09-10T16:09:07.067Z,100523.28
2022-09-10T16:11:37.122Z,100527.66
2022-09-10T16:14:08.427Z,100527.13
2022-09-10T16:16:37.250Z,100524.94
2022-09-10T16:19:05.462Z,100528.78
2022-09-10T16:21:36.023Z,100528.50
2022-09-10T16:24:06.203Z,100532.88
2022-09-10T16:26:36.469Z,100532.34
2022-09-10T16:29:07.196Z,100527.91
2022-09-10T16:31:36.597Z,100532.88
2022-09-10T16:34:06.063Z,100534.22
2022-09-10T16:36:36.836Z,100540.84
2022-09-10T16:39:07.253Z,100543.59
2022-09-10T16:41:34.817Z,100540.84
2022-09-10T16:44:02.794Z,100547.97
2022-09-10T16:46:31.825Z,100543.31
2022-09-10T16:48:59.676Z,100558.69
2022-09-10T16:51:29.041Z,100560.56
2022-09-10T16:54:01.508Z,100558.63
2022-09-10T16:56:30.658Z,100560.50
2022-09-10T16:58:58.297Z,100565.41
2022-09-10T17:01:25.977Z,100561.56
2022-09-10T17:03:55.193Z,100570.34
2022-09-10T17:06:25.116Z,100556.66
2022-09-10T17:08:59.152Z,100560.56
2022-09-10T17:11:32.003Z,100564.44
2022-09-10T17:14:01.212Z,100568.31
2022-09-10T17:16:30.796Z,100568.84
2022-09-10T17:19:01.953Z,100560.34
2022-09-10T17:21:33.454Z,100565.88
2022-09-10T17:24:02.993Z,100570.84
2022-09-10T17:26:31.689Z,100565.63
2022-09-10T17:29:01.045Z,100568.63
2022-09-10T17:31:29.785Z,100574.44
2022-09-10T17:33:59.066Z,100577.47
2022-09-10T17:36:29.151Z,100579.66
2022-09-10T17:38:58.885Z,100584.34
2022-09-10T17:41:27.961Z,100581.00
2022-09-10T17:43:56.450Z,100586.78
2022-09-10T17:46:24.224Z,100581.84
2022-09-10T17:48:53.493Z,100586.50
2022-09-10T17:51:22.976Z,100587.88
2022-09-10T17:53:53.034Z,100593.63
2022-09-10T17:56:21.015Z,100591.41
2022-09-10T17:58:49.320Z,100601.53
2022-09-10T18:01:23.286Z,100611.19
2022-09-10T18:03:51.662Z,100611.19
2022-09-10T18:06:21.356Z,100614.75
2022-09-10T18:08:50.335Z,100611.72
2022-09-10T18:11:22.000Z,100619.97
2022-09-10T18:13:50.745Z,100619.16
2022-09-10T18:16:21.391Z,100621.63
2022-09-10T18:18:53.750Z,100629.31
2022-09-10T18:21:23.895Z,100627.91
2022-09-10T18:23:53.214Z,100626.84
2022-09-10T18:26:25.879Z,100627.09
2022-09-10T18:28:56.350Z,100633.13
2022-09-10T18:31:25.084Z,100633.91
2022-09-10T18:33:53.610Z,100644.59
2022-09-10T18:36:21.671Z,100644.31
2022-09-10T18:38:49.694Z,100645.69
2022-09-10T18:41:19.858Z,100644.28
2022-09-10T18:43:55.570Z,100649.50
2022-09-10T18:46:24.200Z,100648.38
2022-09-10T18:48:52.746Z,100657.16
2022-09-10T18:51:22.173Z,100660.69
2022-09-10T18:53:53.901Z,100666.13
2022-09-10T18:56:24.122Z,100666.41
2022-09-10T18:58:56.028Z,100667.47
2022-09-10T19:01:24.884Z,100666.66
2022-09-10T19:03:53.008Z,100678.47
2022-09-10T19:06:22.880Z,100679.53
2022-09-10T19:08:53.406Z,100677.66
2022-09-10T19:11:22.298Z,100686.16
2022-09-10T19:13:52.050Z,100696.56
2022-09-10T19:16:22.993Z,100691.34
2022-09-10T19:18:53.616Z,100689.66
2022-09-10T19:21:22.051Z,100704.75
2022-09-10T19:23:50.567Z,100707.75
2022-09-10T19:26:19.183Z,100705.84
2022-09-10T19:28:47.710Z,100700.88
2022-09-10T19:31:17.643Z,100706.09
2022-09-10T19:33:48.002Z,100711.84
2022-09-10T19:36:17.645Z,100716.75
2022-09-10T19:38:46.936Z,100719.75
2022-09-10T19:41:18.771Z,100721.66
2022-09-10T19:43:47.740Z,100718.09
2022-09-10T19:46:16.954Z,100723.34
2022-09-10T19:48:47.046Z,100720.00
2022-09-10T19:51:16.700Z,100720.53
2022-09-10T19:53:44.927Z,100720.81
2022-09-10T19:56:19.711Z,100726.50
2022-09-10T19:58:50.586Z,100725.09
2022-09-10T20:01:20.852Z,100726.94
2022-09-10T20:03:52.009Z,100730.78
2022-09-10T20:06:23.387Z,100723.88
2022-09-10T20:08:50.985Z,100729.38
2022-09-10T20:11:20.322Z,100728.78
2022-09-10T20:13:48.517Z,100723.81
2022-09-10T20:16:18.301Z,100726.84
2022-09-10T20:18:46.597Z,100720.69
2022-09-10T20:21:17.723Z,100719.56
2022-09-10T20:23:47.076Z,100721.72
2022-09-10T20:26:17.038Z,100723.91
2022-09-10T20:28:45.189Z,100718.34
2022-09-10T20:31:13.841Z,100728.72
2022-09-10T20:33:43.374Z,100721.84
2022-09-10T20:36:14.114Z,100726.25
2022-09-10T20:38:43.475Z,100721.59
2022-09-10T20:41:12.784Z,100712.25
2022-09-10T20:43:40.864Z,100721.09
2022-09-10T20:46:15.734Z,100719.94
2022-09-10T20:48:48.859Z,100721.59
2022-09-10T20:51:18.395Z,100719.94
2022-09-10T20:53:48.390Z,100723.25
2022-09-10T20:56:19.204Z,100716.13
2022-09-10T20:58:47.849Z,100720.69
2022-09-10T21:01:18.836Z,100728.34
2022-09-10T21:03:48.234Z,100722.28
2022-09-10T21:06:19.604Z,100729.94
2022-09-10T21:08:49.230Z,100726.88
2022-09-10T21:11:18.676Z,100731.47
2022-09-10T21:13:47.836Z,100738.31
2022-09-10T21:16:18.028Z,100732.28
2022-09-10T21:18:53.587Z,100735.84
2022-09-10T21:21:25.263Z,100737.78
2022-09-10T21:23:55.755Z,100738.03
2022-09-10T21:26:26.510Z,100738.31
2022-09-10T21:28:56.097Z,100740.72
2022-09-10T21:31:24.251Z,100741.47
2022-09-10T21:33:52.294Z,100739.72
2022-09-10T21:36:21.495Z,100739.97
2022-09-10T21:38:49.394Z,100748.41
2022-09-10T21:41:21.319Z,100749.25
2022-09-10T21:43:48.990Z,100753.91
2022-09-10T21:46:16.600Z,100757.75
2022-09-10T21:48:45.020Z,100761.81
2022-09-10T21:51:14.399Z,100767.06
2022-09-10T21:53:43.010Z,100760.16
2022-09-10T21:56:12.411Z,100771.38
2022-09-10T21:58:43.143Z,100765.03
2022-09-10T22:01:12.828Z,100773.53
2022-09-10T22:03:41.004Z,100770.06
2022-09-10T22:06:10.397Z,100774.75
2022-09-10T22:08:40.335Z,100781.91
2022-09-10T22:11:09.964Z,100773.94
2022-09-10T22:13:38.981Z,100774.75
2022-09-10T22:16:09.131Z,100775.84
2022-09-10T22:18:37.927Z,100768.72
2022-09-10T22:21:06.767Z,100776.34
2022-09-10T22:23:36.883Z,100773.88
2022-09-10T22:26:05.421Z,100784.84
2022-09-10T22:28:34.914Z,100781.03
2022-09-10T22:31:13.050Z,100781.84
2022-09-10T22:33:42.929Z,100784.84
2022-09-10T22:36:15.763Z,100787.31
2022-09-10T22:38:44.281Z,100795.00
2022-09-10T22:41:14.284Z,100796.63
2022-09-10T22:43:42.702Z,100796.88
2022-09-10T22:46:12.117Z,100801.53
2022-09-10T22:48:42.453Z,100805.28
2022-09-10T22:51:11.931Z,100806.94
2022-09-10T22:53:41.754Z,100811.50
2022-09-10T22:56:10.601Z,100817.25
2022-09-10T22:58:39.156Z,100809.25
2022-09-10T23:01:08.968Z,100816.91
2022-09-10T23:03:38.250Z,100818.78
2022-09-10T23:06:08.324Z,100815.22
2022-09-10T23:08:37.036Z,100818.63
2022-09-10T23:11:09.352Z,100823.50
2022-09-10T23:13:37.240Z,100823.41
2022-09-10T23:16:15.547Z,100830.38
2022-09-10T23:18:48.221Z,100830.72
2022-09-10T23:21:15.834Z,100831.31
2022-09-10T23:23:46.538Z,100829.16
2022-09-10T23:26:14.538Z,100836.28
2022-09-10T23:28:43.024Z,100837.38
2022-09-10T23:31:13.341Z,100837.63
2022-09-10T23:33:44.231Z,100843.59
2022-09-10T23:36:13.380Z,100843.66
2022-09-10T23:38:42.535Z,100842.22
2022-09-10T23:41:11.759Z,100842.53
2022-09-10T23:43:40.234Z,100844.72
2022-09-10T23:46:09.102Z,100842.44
2022-09-10T23:48:36.710Z,100856.13
2022-09-10T23:51:06.907Z,100851.50
2022-09-10T23:53:34.502Z,100851.50
2022-09-10T23:56:02.997Z,100852.97
2022-09-10T23:58:30.923Z,100849.97
